Map

Track Data

SID SEASON NUMBER BASIN SUBBASIN NAME ISO_TIME NATURE LAT LON WMO_WIND WMO_PRES WMO_AGENCY TRACK_TYPE DIST2LAND LANDFALL IFLAG USA_AGENCY USA_ATCF_ID USA_LAT USA_LON USA_RECORD USA_STATUS USA_WIND USA_PRES USA_SSHS USA_R34_NE USA_R34_SE USA_R34_SW USA_R34_NW USA_R50_NE USA_R50_SE USA_R50_SW USA_R50_NW USA_R64_NE USA_R64_SE USA_R64_SW USA_R64_NW USA_POCI USA_ROCI USA_RMW USA_EYE TOKYO_LAT TOKYO_LON TOKYO_GRADE TOKYO_WIND TOKYO_PRES TOKYO_R50_DIR TOKYO_R50_LONG TOKYO_R50_SHORT TOKYO_R30_DIR TOKYO_R30_LONG TOKYO_R30_SHORT TOKYO_LAND CMA_LAT CMA_LON CMA_CAT CMA_WIND CMA_PRES HKO_LAT HKO_LON HKO_CAT HKO_WIND HKO_PRES NEWDELHI_LAT NEWDELHI_LON NEWDELHI_GRADE NEWDELHI_WIND NEWDELHI_PRES NEWDELHI_CI NEWDELHI_DP NEWDELHI_POCI REUNION_LAT REUNION_LON REUNION_TYPE REUNION_WIND REUNION_PRES REUNION_TNUM REUNION_CI REUNION_RMW REUNION_R34_NE REUNION_R34_SE REUNION_R34_SW REUNION_R34_NW REUNION_R50_NE REUNION_R50_SE REUNION_R50_SW REUNION_R50_NW REUNION_R64_NE REUNION_R64_SE REUNION_R64_SW REUNION_R64_NW BOM_LAT BOM_LON BOM_TYPE BOM_WIND BOM_PRES BOM_TNUM BOM_CI BOM_RMW BOM_R34_NE BOM_R34_SE BOM_R34_SW BOM_R34_NW BOM_R50_NE BOM_R50_SE BOM_R50_SW BOM_R50_NW BOM_R64_NE BOM_R64_SE BOM_R64_SW BOM_R64_NW BOM_ROCI BOM_POCI BOM_EYE BOM_POS_METHOD BOM_PRES_METHOD NADI_LAT NADI_LON NADI_CAT NADI_WIND NADI_PRES WELLINGTON_LAT WELLINGTON_LON WELLINGTON_WIND WELLINGTON_PRES DS824_LAT DS824_LON DS824_STAGE DS824_WIND DS824_PRES TD9636_LAT TD9636_LON TD9636_STAGE TD9636_WIND TD9636_PRES TD9635_LAT TD9635_LON TD9635_WIND TD9635_PRES TD9635_ROCI NEUMANN_LAT NEUMANN_LON NEUMANN_CLASS NEUMANN_WIND NEUMANN_PRES MLC_LAT MLC_LON MLC_CLASS MLC_WIND MLC_PRES USA_GUST BOM_GUST BOM_GUST_PER REUNION_GUST REUNION_GUST_PER USA_SEAHGT USA_SEARAD_NE USA_SEARAD_SE USA_SEARAD_SW USA_SEARAD_NW STORM_SPEED STORM_DIR
1897243N13340 1897 22 NA NA NOT_NAMED 1897-08-30 12:00:00 TS 12.5000 -20.0000 main 347 347 _____________O -1 12.5000 -20.0000 TD 25 11 292
1897243N13340 1897 22 NA NA NOT_NAMED 1897-08-30 15:00:00 TS 12.6977 -20.5099 main 394 394 _____________P -1 12.6977 -20.5099 TD 25 11 292
1897243N13340 1897 22 NA NA NOT_NAMED 1897-08-30 18:00:00 TS 12.9000 -21.0000 main 428 428 _____________O -1 12.9000 -21.0000 TD 25 10 294
1897243N13340 1897 22 NA NA NOT_NAMED 1897-08-30 21:00:00 TS 13.1074 -21.4575 main 467 467 _____________P -1 13.1074 -21.4575 TD 27 10 295
1897243N13340 1897 22 NA NA NOT_NAMED 1897-08-31 00:00:00 TS 13.3000 -21.9000 main 500 500 _____________O -1 13.3000 -21.9000 TD 30 9 293
1897243N13340 1897 22 NA NA NOT_NAMED 1897-08-31 03:00:00 TS 13.4649 -22.3426 main 535 535 _____________P -1 13.4649 -22.3426 TD 30 13 289
1897243N13340 1897 22 NA NA NOT_NAMED 1897-08-31 06:00:00 TS 13.7333 -23.2000 35 hurdat_atl main 624 624 O____________O hurdat_atl AL011897 14.0000 -24.0000 TS 35 0 13.6000 -22.8000 TD 30 15 284
1897243N13340 1897 22 NA NA NOT_NAMED 1897-08-31 09:00:00 TS 13.8413 -23.8851 main 697 697 P____________P AL011897 13.9902 -24.4925 TS 35 0 13.6923 -23.2777 TD 30 13 278
1897243N13340 1897 22 NA NA NOT_NAMED 1897-08-31 12:00:00 TS 13.9200 -24.5200 35 hurdat_atl main 759 759 O____________O hurdat_atl AL011897 14.0000 -25.0000 TS 35 0 13.8000 -23.8000 TD 30 12 279
1897243N13340 1897 22 NA NA NOT_NAMED 1897-08-31 15:00:00 TS 14.0257 -25.1516 main 833 833 P____________P AL011897 14.0424 -25.5350 TS 35 0 13.9925 -24.3849 TD 32 12 280
1897243N13340 1897 22 NA NA NOT_NAMED 1897-08-31 18:00:00 TS 14.1333 -25.7333 35 hurdat_atl main 886 886 O____________O hurdat_atl AL011897 14.1000 -26.1000 TS 35 0 14.2000 -25.0000 TS 35 12 280
1897243N13340 1897 22 NA NA NOT_NAMED 1897-08-31 21:00:00 TS 14.2191 -26.3334 main 949 949 P____________P AL011897 14.1500 -26.7000 TS 35 0 14.3573 -25.6001 TS 37 12 278
1897243N13340 1897 22 NA NA NOT_NAMED 1897-09-01 00:00:00 TS 14.3000 -26.9333 35 hurdat_atl main 1013 1013 O____________O hurdat_atl AL011897 14.2000 -27.3000 TS 35 0 14.5000 -26.2000 TS 40 12 278
1897243N13340 1897 22 NA NA NOT_NAMED 1897-09-01 03:00:00 TS 14.3757 -27.5076 main 1077 1077 P____________P AL011897 14.2423 -27.8576 TS 37 0 14.6424 -26.8076 TS 45 11 279
1897243N13340 1897 22 NA NA NOT_NAMED 1897-09-01 06:00:00 TS 14.4667 -28.0667 40 hurdat_atl main 1141 1141 O____________O hurdat_atl AL011897 14.3000 -28.4000 TS 40 0 14.8000 -27.4000 TS 50 999 11 281
1897243N13340 1897 22 NA NA NOT_NAMED 1897-09-01 09:00:00 TS 14.5923 -28.6167 main 1194 1194 P____________P AL011897 14.3924 -28.9500 TS 47 0 14.9923 -27.9501 TS 50 11 284
1897243N13340 1897 22 NA NA NOT_NAMED 1897-09-01 12:00:00 TS 14.7333 -29.1667 55 hurdat_atl main 1258 1258 O____________O hurdat_atl AL011897 14.5000 -29.5000 TS 55 0 15.2000 -28.5000 TS 50 11 284
1897243N13340 1897 22 NA NA NOT_NAMED 1897-09-01 15:00:00 TS 14.8616 -29.7334 main 1312 1312 P____________P AL011897 14.5924 -30.0501 TS 60 0 15.4000 -29.1001 TS 52 11 284
1897243N13340 1897 22 NA NA NOT_NAMED 1897-09-01 18:00:00 TS 15.0000 -30.3000 65 hurdat_atl main 1376 1376 O____________O hurdat_atl AL011897 14.7000 -30.6000 HU 65 1 15.6000 -29.7000 TS 55 11 286
1897243N13340 1897 22 NA NA NOT_NAMED 1897-09-01 21:00:00 TS 15.1615 -30.8526 main 1441 1441 P____________P AL011897 14.8424 -31.1500 HU 67 1 15.7998 -30.2576 TS 55 11 287
1897243N13340 1897 22 NA NA NOT_NAMED 1897-09-02 00:00:00 TS 15.3333 -31.4000 70 hurdat_atl main 1494 1494 O____________O hurdat_atl AL011897 15.0000 -31.7000 HU 70 1 16.0000 -30.8000 TS 55 11 288
1897243N13340 1897 22 NA NA NOT_NAMED 1897-09-02 03:00:00 TS 15.5024 -31.9501 main 1559 1559 P____________P AL011897 15.1499 -32.2501 HU 72 1 16.2074 -31.3500 TS 57 11 287
1897243N13340 1897 22 NA NA NOT_NAMED 1897-09-02 06:00:00 TS 15.6667 -32.5000 75 hurdat_atl main 1613 1613 O____________O hurdat_atl AL011897 15.3000 -32.8000 HU 75 1 16.4000 -31.9000 TS 60 11 286
1897243N13340 1897 22 NA NA NOT_NAMED 1897-09-02 09:00:00 TS 15.8115 -33.0477 main 1667 1667 P____________P AL011897 15.4424 -33.3501 HU 75 1 16.5498 -32.4427 TS 60 11 286
1897243N13340 1897 22 NA NA NOT_NAMED 1897-09-02 12:00:00 TS 15.9667 -33.6000 75 hurdat_atl main 1732 1732 O____________O hurdat_atl AL011897 15.6000 -33.9000 HU 75 1 16.7000 -33.0000 TS 60 11 288
1897243N13340 1897 22 NA NA NOT_NAMED 1897-09-02 15:00:00 TS 16.1591 -34.1667 main 1797 1797 P____________P AL011897 15.7924 -34.4501 HU 77 1 16.8925 -33.6000 TS 62 12 290
1897243N13340 1897 22 NA NA NOT_NAMED 1897-09-02 18:00:00 TS 16.3667 -34.7333 80 hurdat_atl main 1852 1852 O____________O hurdat_atl AL011897 16.0000 -35.0000 HU 80 1 17.1000 -34.2000 HU 65 11 290
1897243N13340 1897 22 NA NA NOT_NAMED 1897-09-02 21:00:00 TS 16.5590 -35.2860 main 1917 1917 P____________P AL011897 16.1924 -35.5502 HU 80 1 17.2923 -34.7577 HU 67 11 291
1897243N13340 1897 22 NA NA NOT_NAMED 1897-09-03 00:00:00 TS 16.7667 -35.8333 80 hurdat_atl main 1972 1972 O____________O hurdat_atl AL011897 16.4000 -36.1000 HU 80 1 17.5000 -35.3000 HU 70 11 293
1897243N13340 1897 22 NA NA NOT_NAMED 1897-09-03 03:00:00 TS 17.0065 -36.3834 main 2037 2037 P____________P AL011897 16.6349 -36.6501 HU 82 1 17.7498 -35.8500 HU 72 12 295
1897243N13340 1897 22 NA NA NOT_NAMED 1897-09-03 06:00:00 TS 17.2667 -36.9333 85 hurdat_atl main 2093 2093 O____________O hurdat_atl AL011897 16.9000 -37.2000 HU 85 2 18.0000 -36.4000 HU 75 12 297
1897243N13340 1897 22 NA NA NOT_NAMED 1897-09-03 09:00:00 TS 17.5280 -37.4686 main 2108 2093 P____________P AL011897 17.1923 -37.7427 HU 85 2 18.1996 -36.9204 HU 75 12 297
1897243N13340 1897 22 NA NA NOT_NAMED 1897-09-03 12:00:00 TS 17.8000 -38.0333 85 hurdat_atl main 2093 2065 O____________O hurdat_atl AL011897 17.5000 -38.3000 HU 85 2 18.4000 -37.5000 HU 75 13 296
1897243N13340 1897 22 NA NA NOT_NAMED 1897-09-03 15:00:00 TS 18.0757 -38.6635 main 2066 2040 P____________P AL011897 17.7923 -38.8853 HU 85 2 18.6425 -38.2200 HU 75 14 295
1897243N13340 1897 22 NA NA NOT_NAMED 1897-09-03 18:00:00 TS 18.3667 -39.3333 85 hurdat_atl main 2048 2025 O____________O hurdat_atl AL011897 18.1000 -39.5000 HU 85 2 18.9000 -39.0000 HU 75 14 295
1897243N13340 1897 22 NA NA NOT_NAMED 1897-09-03 21:00:00 TS 18.6781 -40.0069 main 2027 2006 P____________P AL011897 18.4423 -40.1352 HU 85 2 19.1497 -39.7502 HU 75 14 296
1897243N13340 1897 22 NA NA NOT_NAMED 1897-09-04 00:00:00 TS 19.0000 -40.7000 85 hurdat_atl main 2008 1989 O____________O hurdat_atl AL011897 18.8000 -40.8000 HU 85 2 19.4000 -40.5000 HU 75 15 295
1897243N13340 1897 22 NA NA NOT_NAMED 1897-09-04 03:00:00 TS 19.3115 -41.4169 main 1991 1973 P____________P AL011897 19.1424 -41.5003 HU 85 2 19.6497 -41.2502 HU 75 15 295
1897243N13340 1897 22 NA NA NOT_NAMED 1897-09-04 06:00:00 TS 19.6333 -42.1333 85 hurdat_atl main 1973 1958 O____________O hurdat_atl AL011897 19.5000 -42.2000 HU 85 2 19.9000 -42.0000 HU 75 15 296
1897243N13340 1897 22 NA NA NOT_NAMED 1897-09-04 09:00:00 TS 19.9631 -42.8321 main 1967 1952 P____________P AL011897 19.8922 -42.8578 HU 85 2 20.1050 -42.7806 HU 75 15 299
1897243N13340 1897 22 NA NA NOT_NAMED 1897-09-04 12:00:00 TS 20.3333 -43.5000 85 hurdat_atl main 1956 1955 O____________O hurdat_atl AL011897 20.3000 -43.5000 HU 85 2 20.4000 -43.5000 HU 75 15 303
1897243N13340 1897 22 NA NA NOT_NAMED 1897-09-04 15:00:00 TS 20.7630 -44.1221 main 1973 1967 P____________P AL011897 20.6922 -44.1430 HU 85 2 20.9045 -44.0801 HU 75 15 308
1897243N13340 1897 22 NA NA NOT_NAMED 1897-09-04 18:00:00 TS 21.2333 -44.7333 85 hurdat_atl main 1982 1982 O____________O hurdat_atl AL011897 21.1000 -44.8000 HU 85 2 21.5000 -44.6000 HU 75 15 309
1897243N13340 1897 22 NA NA NOT_NAMED 1897-09-04 21:00:00 TS 21.7115 -45.3836 main 2001 2001 P____________P AL011897 21.5424 -45.5002 HU 85 2 22.0498 -45.1504 HU 75 16 309
1897243N13340 1897 22 NA NA NOT_NAMED 1897-09-05 00:00:00 TS 22.2000 -46.0333 85 hurdat_atl main 2026 2021 O____________O hurdat_atl AL011897 22.0000 -46.2000 HU 85 2 22.6000 -45.7000 HU 75 15 309
1897243N13340 1897 22 NA NA NOT_NAMED 1897-09-05 03:00:00 TS 22.6781 -46.6580 main 2023 1982 P____________P AL011897 22.4421 -46.8581 HU 85 2 23.1499 -46.2579 HU 77 15 310
1897243N13340 1897 22 NA NA NOT_NAMED 1897-09-05 06:00:00 TS 23.1667 -47.2667 85 hurdat_atl main 1974 1925 O____________O hurdat_atl AL011897 22.9000 -47.5000 HU 85 2 23.7000 -46.8000 HU 80 15 311
1897243N13340 1897 22 NA NA NOT_NAMED 1897-09-05 09:00:00 TS 23.6733 -47.8919 main 1927 1890 P____________P AL011897 23.3850 -48.1727 HU 85 2 24.2500 -47.3302 HU 82 15 313
1897243N13340 1897 22 NA NA NOT_NAMED 1897-09-05 12:00:00 TS 24.2000 -48.4667 85 hurdat_atl main 1884 1853 O____________O hurdat_atl AL011897 23.9000 -48.8000 HU 85 2 24.8000 -47.8000 HU 85 15 317
1897243N13340 1897 22 NA NA NOT_NAMED 1897-09-05 15:00:00 TS 24.7424 -48.9792 main 1853 1840 P____________P AL011897 24.4349 -49.3675 HU 85 2 25.3574 -48.2026 HU 85 14 323
1897243N13340 1897 22 NA NA NOT_NAMED 1897-09-05 18:00:00 TS 25.3000 -49.3667 85 hurdat_atl main 1838 1837 O____________O hurdat_atl AL011897 25.0000 -49.8000 HU 85 2 25.9000 -48.5000 HU 85 13 333
1897243N13340 1897 22 NA NA NOT_NAMED 1897-09-05 21:00:00 TS 25.8590 -49.6153 main 1846 1841 P____________P AL011897 25.5848 -50.0753 HU 85 2 26.4074 -48.6954 HU 85 12 344
1897243N13340 1897 22 NA NA NOT_NAMED 1897-09-06 00:00:00 TS 26.4333 -49.7333 85 hurdat_atl main 1860 1860 O____________O hurdat_atl AL011897 26.2000 -50.2000 HU 85 2 26.9000 -48.8000 HU 85 12 352
1897243N13340 1897 22 NA NA NOT_NAMED 1897-09-06 03:00:00 TS 27.0383 -49.7951 main 1881 1881 P____________P AL011897 26.8574 -50.2526 HU 85 2 27.4000 -48.8800 HU 85 12 358
1897243N13340 1897 22 NA NA NOT_NAMED 1897-09-06 06:00:00 TS 27.6333 -49.7667 85 hurdat_atl main 1912 1912 O____________O hurdat_atl AL011897 27.5000 -50.2000 HU 85 2 27.9000 -48.9000 HU 85 12 5
1897243N13340 1897 22 NA NA NOT_NAMED 1897-09-06 09:00:00 TS 28.1866 -49.6850 main 1954 1954 P____________P AL011897 28.0725 -50.0875 HU 85 2 28.4150 -48.8800 HU 85 11 11
1897243N13340 1897 22 NA NA NOT_NAMED 1897-09-06 12:00:00 TS 28.7000 -49.5333 85 hurdat_atl main 2000 1965 O____________O hurdat_atl AL011897 28.6000 -49.9000 HU 85 2 28.9000 -48.8000 HU 85 10 17
1897243N13340 1897 22 NA NA NOT_NAMED 1897-09-06 15:00:00 TS 29.1866 -49.3465 main 1966 1925 P____________P AL011897 29.1224 -49.6799 HU 85 2 29.3150 -48.6798 HU 85 10 22
1897243N13340 1897 22 NA NA NOT_NAMED 1897-09-06 18:00:00 TS 29.6333 -49.1000 85 hurdat_atl main 1925 1885 O____________O hurdat_atl AL011897 29.6000 -49.4000 HU 85 2 29.7000 -48.5000 HU 85 10 30
1897243N13340 1897 22 NA NA NOT_NAMED 1897-09-06 21:00:00 TS 30.0384 -48.7907 main 1886 1848 P____________P AL011897 30.0075 -49.0647 HU 85 2 30.1001 -48.2428 HU 85 10 34
1897243N13340 1897 22 NA NA NOT_NAMED 1897-09-07 00:00:00 TS 30.4333 -48.4667 85 hurdat_atl main 1848 1808 O____________O hurdat_atl AL011897 30.4000 -48.7000 HU 85 2 30.5000 -48.0000 HU 85 10 32
1897243N13340 1897 22 NA NA NOT_NAMED 1897-09-07 03:00:00 TS 30.8640 -48.1996 main 1799 1760 P____________P AL011897 30.8423 -48.3571 HU 85 2 30.9074 -47.8846 HU 85 10 28
1897243N13340 1897 22 NA NA NOT_NAMED 1897-09-07 06:00:00 TS 31.3000 -47.9333 85 hurdat_atl main 1762 1723 O____________O hurdat_atl AL011897 31.3000 -48.0000 HU 85 2 31.3000 -47.8000 HU 85 10 29
1897243N13340 1897 22 NA NA NOT_NAMED 1897-09-07 09:00:00 TS 31.6987 -47.6631 main 1723 1687 P____________P AL011897 31.7424 -47.6071 HU 85 2 31.6113 -47.7750 HU 87 10 33
1897243N13340 1897 22 NA NA NOT_NAMED 1897-09-07 12:00:00 TS 32.1333 -47.3000 85 hurdat_atl main 1690 1647 O____________O hurdat_atl AL011897 32.2000 -47.2000 HU 85 2 32.0000 -47.5000 HU 90 968 12 39
1897243N13340 1897 22 NA NA NOT_NAMED 1897-09-07 15:00:00 TS 32.6561 -46.7618 main 1639 1604 P____________P AL011897 32.6773 -46.8068 HU 85 2 32.6137 -46.6719 HU 87 15 42
1897243N13340 1897 22 NA NA NOT_NAMED 1897-09-07 18:00:00 TS 33.2333 -46.1333 85 hurdat_atl main 1607 1561 O____________O hurdat_atl AL011897 33.2000 -46.4000 HU 85 2 33.3000 -45.6000 HU 85 16 41
1897243N13340 1897 22 NA NA NOT_NAMED 1897-09-07 21:00:00 TS 33.8229 -45.5356 main 1564 1521 P____________P AL011897 33.7847 -45.9792 HU 85 2 33.8993 -44.6482 HU 85 16 41
1897243N13340 1897 22 NA NA NOT_NAMED 1897-09-08 00:00:00 TS 34.4333 -44.9000 85 hurdat_atl main 1525 1488 O____________O hurdat_atl AL011897 34.4000 -45.5000 HU 85 2 34.5000 -43.7000 HU 85 16 42
1897243N13340 1897 22 NA NA NOT_NAMED 1897-09-08 03:00:00 TS 35.0393 -44.2243 main 1493 1460 P____________P AL011897 34.9842 -44.9656 HU 85 2 35.1494 -42.7417 HU 85 17 44
1897243N13340 1897 22 NA NA NOT_NAMED 1897-09-08 06:00:00 TS 35.6667 -43.4667 85 hurdat_atl main 1455 1437 O____________O hurdat_atl AL011897 35.6000 -44.3000 HU 85 2 35.8000 -41.8000 HU 85 18 46
1897243N13340 1897 22 NA NA NOT_NAMED 1897-09-08 09:00:00 TS 36.2900 -42.6212 main 1442 1426 P____________P AL011897 36.2619 -43.4803 HU 85 2 36.3464 -40.9030 HU 85 20 47
1897243N13340 1897 22 NA NA NOT_NAMED 1897-09-08 12:00:00 TS 37.0000 -41.6667 85 hurdat_atl main 1426 1414 O____________O hurdat_atl AL011897 37.0000 -42.5000 HU 85 2 37.0000 -40.0000 HU 85 968 22 46
1897243N13340 1897 22 NA NA NOT_NAMED 1897-09-08 15:00:00 TS 37.8464 -40.6265 main 1420 1406 P____________P AL011897 37.7961 -41.4284 HU 85 2 37.9469 -39.0225 HU 82 25 44
1897243N13340 1897 22 NA NA NOT_NAMED 1897-09-08 18:00:00 TS 38.8000 -39.4667 85 hurdat_atl main 1409 1406 O____________O hurdat_atl AL011897 38.7000 -40.2000 HU 85 2 39.0000 -38.0000 HU 80 27 44
1897243N13340 1897 22 NA NA NOT_NAMED 1897-09-08 21:00:00 TS 39.7915 -38.1757 main 1421 1420 P____________P AL011897 39.7127 -38.7864 HU 85 2 39.9493 -36.9542 HU 77 29 45
1897243N13340 1897 22 NA NA NOT_NAMED 1897-09-09 00:00:00 TS 40.8333 -36.8333 85 hurdat_atl main 1453 1447 O____________O hurdat_atl AL011897 40.8000 -37.3000 HU 85 2 40.9000 -35.9000 HU 75 29 43
1897243N13340 1897 22 NA NA NOT_NAMED 1897-09-09 03:00:00 TS 41.9137 -35.5306 main 1479 1473 P____________P AL011897 41.9210 -35.8757 HU 82 1 41.8992 -34.8403 HU 72 29 42
1897243N13340 1897 22 NA NA NOT_NAMED 1897-09-09 06:00:00 TS 42.9667 -34.2667 80 hurdat_atl main 1507 1507 O____________O hurdat_atl AL011897 43.0000 -34.5000 HU 80 1 42.9000 -33.8000 HU 70 27 42
1897243N13340 1897 22 NA NA NOT_NAMED 1897-09-09 09:00:00 TS 43.9291 -33.0501 main 1555 1555 P____________P AL011897 43.9506 -33.1729 HU 80 1 43.8860 -32.8046 HU 67 25 43
1897243N13340 1897 22 NA NA NOT_NAMED 1897-09-09 12:00:00 MX 44.8000 -31.8667 80 hurdat_atl main 1610 1610 O____________O hurdat_atl AL011897 44.8000 -31.9000 HU 80 1 44.8000 -31.8000 EX 65 24 46
1897243N13340 1897 22 NA NA NOT_NAMED 1897-09-09 15:00:00 MX 45.5811 -30.6625 main 1627 1508 P____________P AL011897 45.5783 -30.6380 HU 77 1 45.5868 -30.7115 EX 65 22 48
1897243N13340 1897 22 NA NA NOT_NAMED 1897-09-09 18:00:00 MX 46.3000 -29.4667 75 hurdat_atl main 1508 1390 O____________O hurdat_atl AL011897 46.3000 -29.4000 HU 75 1 46.3000 -29.6000 EX 65 22 49
1897243N13340 1897 22 NA NA NOT_NAMED 1897-09-09 21:00:00 MX 47.0162 -28.2638 main 1390 1274 P____________P AL011897 47.0211 -28.1473 HU 70 1 47.0064 -28.4967 EX 62 21 49
1897243N13340 1897 22 NA NA NOT_NAMED 1897-09-10 00:00:00 ET 47.7000 -27.0667 65 hurdat_atl main 1274 1165 O____________O hurdat_atl AL011897 47.7000 -26.9000 EX 65 -4 47.7000 -27.4000 EX 60 21 50
1897243N13340 1897 22 NA NA NOT_NAMED 1897-09-10 03:00:00 ET 48.3521 -25.8638 main 1160 1057 P____________P AL011897 48.3286 -25.6471 EX 60 -4 48.3990 -26.2970 EX 57 20 52
1897243N13340 1897 22 NA NA NOT_NAMED 1897-09-10 06:00:00 ET 48.9667 -24.6667 55 hurdat_atl main 1053 952 O____________O hurdat_atl AL011897 48.9000 -24.4000 EX 55 -4 49.1000 -25.2000 EX 55 20 53
1897243N13340 1897 22 NA NA NOT_NAMED 1897-09-10 09:00:00 ET 49.5321 -23.4624 main 952 848 P____________P AL011897 49.3987 -23.1452 EX 52 -4 49.7990 -24.0968 EX 52 19 54
1897243N13340 1897 22 NA NA NOT_NAMED 1897-09-10 12:00:00 ET 50.1000 -22.2667 50 hurdat_atl main 848 747 O____________O hurdat_atl AL011897 49.9000 -21.9000 EX 50 -4 50.5000 -23.0000 EX 50 19 52
1897243N13340 1897 22 NA NA NOT_NAMED 1897-09-10 15:00:00 ET 50.7191 -21.0743 main 747 650 P____________P AL011897 50.4777 -20.6581 EX 50 -4 51.2020 -21.9068 EX 50 20 50
1897243N13340 1897 22 NA NA NOT_NAMED 1897-09-10 18:00:00 ET 51.3667 -19.8667 50 hurdat_atl main 647 O____________O hurdat_atl AL011897 51.1000 -19.4000 EX 50 -4 51.9000 -20.8000 EX 50 20 49

About IBTrACS Database

This database is a web-friendly format of International Best Track Archive for Climate Stewardship (IBTrACS), a global best track data archive curated by NOAA dating back to 1842.

Updated: 2021-12-08